createdAt,value
2022-11-03T00:00:30.496Z,98956.75
2022-11-03T00:03:04.208Z,98957.91
2022-11-03T00:05:55.445Z,98955.16
2022-11-03T00:08:31.035Z,98959.06
2022-11-03T00:11:10.404Z,98957.66
2022-11-03T00:13:45.231Z,98952.13
2022-11-03T00:16:19.163Z,98949.56
2022-11-03T00:18:53.161Z,98944.81
2022-11-03T00:21:27.165Z,98945.59
2022-11-03T00:24:03.588Z,98949.44
2022-11-03T00:26:38.388Z,98944.75
2022-11-03T00:29:13.575Z,98941.88
2022-11-03T00:31:47.316Z,98946.94
2022-11-03T00:34:20.861Z,98939.34
2022-11-03T00:36:55.208Z,98934.44
2022-11-03T00:39:30.458Z,98932.56
2022-11-03T00:42:04.320Z,98932.50
2022-11-03T00:44:38.220Z,98930.94
2022-11-03T00:47:11.940Z,98934.00
2022-11-03T00:49:45.481Z,98937.66
2022-11-03T00:52:19.243Z,98938.44
2022-11-03T00:54:55.370Z,98953.31
2022-11-03T00:57:29.248Z,98963.53
2022-11-03T01:00:02.916Z,98960.84
2022-11-03T01:02:35.861Z,98968.03
2022-11-03T01:05:27.662Z,98955.00
2022-11-03T01:11:00.777Z,98943.06
2022-11-03T01:13:34.404Z,98930.56
2022-11-03T01:16:08.449Z,98942.38
2022-11-03T01:18:42.341Z,98946.06
2022-11-03T01:21:16.522Z,98933.34
2022-11-03T01:23:50.680Z,98945.81
2022-11-03T01:26:25.971Z,98934.25
2022-11-03T01:29:01.605Z,98948.22
2022-11-03T01:31:35.306Z,98944.28
2022-11-03T01:34:09.406Z,98951.09
2022-11-03T01:36:43.001Z,98945.50
2022-11-03T01:39:18.661Z,98952.91
2022-11-03T01:41:54.239Z,98954.31
2022-11-03T01:44:34.871Z,98948.53
2022-11-03T01:47:15.709Z,98951.22
2022-11-03T01:49:54.834Z,98946.13
2022-11-03T01:52:34.279Z,98955.25
2022-11-03T01:55:12.845Z,98961.41
2022-11-03T01:57:56.189Z,98957.25
2022-11-03T02:00:30.474Z,98956.13
2022-11-03T02:03:04.331Z,98954.06
2022-11-03T02:05:39.128Z,98951.81
2022-11-03T02:08:18.304Z,98966.00
2022-11-03T02:10:53.375Z,98958.44
2022-11-03T02:13:29.416Z,98956.78
2022-11-03T02:16:03.625Z,98944.72
2022-11-03T02:18:37.441Z,98938.06
2022-11-03T02:21:21.172Z,98947.94
2022-11-03T02:24:03.334Z,98941.09
2022-11-03T02:26:38.743Z,98960.16
2022-11-03T02:29:12.660Z,98950.94
2022-11-03T02:31:52.184Z,98935.06
2022-11-03T02:34:34.295Z,98946.34
2022-11-03T02:37:14.014Z,98943.22
2022-11-03T02:39:58.077Z,98945.09
2022-11-03T02:42:33.507Z,98927.94
2022-11-03T02:45:14.789Z,98919.38
2022-11-03T02:47:53.350Z,98922.25
2022-11-03T02:50:29.148Z,98912.13
2022-11-03T02:53:03.243Z,98911.44
2022-11-03T02:55:40.759Z,98904.69
2022-11-03T02:58:22.304Z,98904.63
2022-11-03T03:01:01.200Z,98900.88
2022-11-03T03:03:39.598Z,98895.38
2022-11-03T03:06:18.345Z,98887.69
2022-11-03T03:09:01.051Z,98890.59
2022-11-03T03:11:39.570Z,98892.50
2022-11-03T03:14:18.989Z,98887.47
2022-11-03T03:17:00.034Z,98893.31
2022-11-03T03:19:49.806Z,98883.53
2022-11-03T03:22:26.813Z,98886.63
2022-11-03T03:25:04.884Z,98893.38
2022-11-03T03:27:44.829Z,98891.06
2022-11-03T03:30:20.926Z,98883.72
2022-11-03T03:32:58.494Z,98882.50
2022-11-03T03:35:35.138Z,98879.72
2022-11-03T03:38:14.961Z,98880.03
2022-11-03T03:40:53.631Z,98881.84
2022-11-03T03:43:29.898Z,98876.19
2022-11-03T03:46:11.007Z,98874.72
2022-11-03T03:48:44.276Z,98885.19
2022-11-03T03:51:21.617Z,98872.56
2022-11-03T03:53:56.100Z,98876.75
2022-11-03T03:56:37.731Z,98879.09
2022-11-03T03:59:11.290Z,98875.28
2022-11-03T04:01:46.659Z,98871.75
2022-11-03T04:04:20.378Z,98863.44
2022-11-03T04:07:14.921Z,98864.88
2022-11-03T04:09:48.509Z,98859.25
2022-11-03T04:12:39.553Z,98864.28
2022-11-03T04:15:32.005Z,98855.69
2022-11-03T04:18:24.554Z,98862.16
2022-11-03T04:21:15.375Z,98857.31
2022-11-03T04:23:48.302Z,98845.47
2022-11-03T04:26:24.578Z,98850.50
2022-11-03T04:28:59.725Z,98844.03
2022-11-03T04:31:36.690Z,98847.81
2022-11-03T04:34:14.718Z,98835.34
2022-11-03T04:36:48.273Z,98827.84
2022-11-03T04:39:22.111Z,98835.78
2022-11-03T04:41:55.653Z,98828.13
2022-11-03T04:44:29.903Z,98830.34
2022-11-03T04:47:03.534Z,98831.41
2022-11-03T04:49:38.838Z,98823.47
2022-11-03T04:52:16.926Z,98824.19
2022-11-03T04:54:54.447Z,98824.91
2022-11-03T04:57:29.982Z,98821.16
2022-11-03T05:00:04.051Z,98827.00
2022-11-03T05:02:37.704Z,98825.31
2022-11-03T05:05:19.313Z,98815.50
2022-11-03T05:07:55.591Z,98821.16
2022-11-03T05:10:31.534Z,98811.81
2022-11-03T05:13:05.667Z,98812.59
2022-11-03T05:15:44.439Z,98809.69
2022-11-03T05:18:21.685Z,98799.66
2022-11-03T05:20:59.911Z,98802.06
2022-11-03T05:23:41.528Z,98805.91
2022-11-03T05:26:19.603Z,98793.38
2022-11-03T05:28:56.546Z,98791.28
2022-11-03T05:31:31.969Z,98794.88
2022-11-03T05:34:29.750Z,98778.13
2022-11-03T05:37:29.317Z,98777.97
2022-11-03T05:40:08.622Z,98790.25
2022-11-03T05:42:46.644Z,98789.28
2022-11-03T05:45:24.382Z,98789.72
2022-11-03T05:47:58.477Z,98784.72
2022-11-03T05:50:36.105Z,98775.13
2022-11-03T05:53:27.454Z,98761.00
2022-11-03T05:56:03.917Z,98762.56
2022-11-03T05:58:40.183Z,98761.31
2022-11-03T06:01:18.263Z,98765.44
2022-11-03T06:03:51.739Z,98762.56
2022-11-03T06:06:32.489Z,98760.63
2022-11-03T06:09:15.009Z,98753.81
2022-11-03T06:11:48.860Z,98747.56
2022-11-03T06:14:25.030Z,98751.94
2022-11-03T06:17:00.071Z,98740.06
2022-11-03T06:19:37.227Z,98746.19
2022-11-03T06:22:17.102Z,98743.50
2022-11-03T06:24:52.773Z,98744.22
2022-11-03T06:27:30.912Z,98748.41
2022-11-03T06:30:21.108Z,98740.22
2022-11-03T06:32:56.637Z,98740.75
2022-11-03T06:35:30.669Z,98737.44
2022-11-03T06:38:04.658Z,98736.34
2022-11-03T06:40:40.418Z,98732.03
2022-11-03T06:43:22.044Z,98732.81
2022-11-03T06:45:58.855Z,98735.94
2022-11-03T06:48:36.831Z,98739.69
2022-11-03T06:51:17.992Z,98734.69
2022-11-03T06:53:53.847Z,98736.59
2022-11-03T06:56:33.547Z,98748.69
2022-11-03T06:59:12.245Z,98733.44
2022-11-03T07:01:49.041Z,98749.66
2022-11-03T07:04:25.265Z,98752.38
2022-11-03T07:07:04.314Z,98756.41
2022-11-03T07:09:38.025Z,98762.25
2022-11-03T07:12:18.855Z,98754.72
2022-11-03T07:14:52.445Z,98761.13
2022-11-03T07:17:26.266Z,98765.59
2022-11-03T07:20:00.516Z,98769.34
2022-11-03T07:22:35.748Z,98770.38
2022-11-03T07:25:17.681Z,98767.00
2022-11-03T07:27:54.676Z,98760.31
2022-11-03T07:30:32.663Z,98752.56
2022-11-03T07:33:16.963Z,98750.06
2022-11-03T07:36:14.501Z,98752.63
2022-11-03T07:38:46.457Z,98753.25
2022-11-03T07:41:22.415Z,98760.09
2022-11-03T07:43:58.945Z,98752.97
2022-11-03T07:46:33.011Z,98752.69
2022-11-03T07:49:09.059Z,98749.25
2022-11-03T07:51:43.005Z,98753.78
2022-11-03T07:54:20.663Z,98753.78
2022-11-03T07:56:57.559Z,98758.09
2022-11-03T07:59:37.344Z,98751.19
2022-11-03T08:02:27.826Z,98759.25
2022-11-03T08:05:01.244Z,98759.34
2022-11-03T08:07:34.764Z,98765.19
2022-11-03T08:10:08.385Z,98766.75
2022-11-03T08:12:41.160Z,98776.97
2022-11-03T08:15:16.550Z,98770.50
2022-11-03T08:17:53.516Z,98767.94
2022-11-03T08:20:29.400Z,98768.28
2022-11-03T08:23:24.791Z,98761.59
2022-11-03T08:25:56.262Z,98761.75
2022-11-03T08:28:30.310Z,98760.91
2022-11-03T08:31:11.224Z,98753.69
2022-11-03T08:33:45.793Z,98735.94
2022-11-03T08:36:20.013Z,98730.47
2022-11-03T08:38:53.859Z,98736.50
2022-11-03T08:41:26.791Z,98743.25
2022-11-03T08:44:00.519Z,98739.94
2022-11-03T08:46:35.311Z,98741.72
2022-11-03T08:49:08.112Z,98735.47
2022-11-03T08:51:44.688Z,98730.47
2022-11-03T08:54:17.715Z,98727.34
2022-11-03T08:56:50.575Z,98724.28
2022-11-03T08:59:23.429Z,98720.53
2022-11-03T09:01:57.968Z,98723.63
2022-11-03T09:04:30.839Z,98725.81
2022-11-03T09:07:03.757Z,98730.13
2022-11-03T09:12:29.475Z,98720.00
2022-11-03T09:15:02.345Z,98719.50
2022-11-03T09:17:38.523Z,98718.22
2022-11-03T09:20:14.632Z,98722.94
2022-11-03T09:22:47.505Z,98715.56
2022-11-03T09:25:20.710Z,98718.91
2022-11-03T09:27:53.985Z,98718.78
2022-11-03T09:30:27.647Z,98723.13
2022-11-03T09:33:04.408Z,98723.44
2022-11-03T09:35:38.001Z,98717.31
2022-11-03T09:38:11.642Z,98724.69
2022-11-03T09:40:44.553Z,98722.63
2022-11-03T09:43:18.369Z,98722.69
2022-11-03T09:45:51.317Z,98712.72
2022-11-03T09:48:25.995Z,98716.38
2022-11-03T09:50:59.124Z,98710.72
2022-11-03T09:53:32.463Z,98707.50
2022-11-03T09:56:06.459Z,98699.56
2022-11-03T09:58:40.536Z,98701.28
2022-11-03T10:01:13.764Z,98698.81
2022-11-03T10:03:48.201Z,98697.78
2022-11-03T10:06:21.721Z,98702.53
2022-11-03T10:08:54.597Z,98702.75
2022-11-03T10:11:28.263Z,98693.53
2022-11-03T10:14:02.507Z,98701.44
2022-11-03T10:16:37.439Z,98703.09
2022-11-03T10:19:14.353Z,98698.88
2022-11-03T10:21:47.376Z,98696.91
2022-11-03T10:24:20.371Z,98699.53
2022-11-03T10:26:55.937Z,98695.59
2022-11-03T10:29:32.435Z,98691.75
2022-11-03T10:32:30.889Z,98704.38
2022-11-03T10:35:35.136Z,98693.50
2022-11-03T10:38:25.660Z,98697.88
2022-11-03T10:41:11.615Z,98703.59
2022-11-03T10:43:45.731Z,98702.03
2022-11-03T10:46:44.734Z,98696.81
2022-11-03T10:49:18.362Z,98700.03
2022-11-03T10:51:54.229Z,98693.50
2022-11-03T10:54:27.086Z,98692.31
2022-11-03T10:56:59.934Z,98690.53
2022-11-03T10:59:36.860Z,98685.38
2022-11-03T11:02:18.566Z,98694.38
2022-11-03T11:05:00.770Z,98684.47
2022-11-03T11:07:39.886Z,98687.88
2022-11-03T11:10:17.996Z,98688.72
2022-11-03T11:13:08.345Z,98677.25
2022-11-03T11:15:43.328Z,98674.66
2022-11-03T11:19:14.432Z,98674.06
2022-11-03T11:22:03.930Z,98670.56
2022-11-03T11:25:02.393Z,98675.16
2022-11-03T11:27:58.645Z,98667.03
2022-11-03T11:30:58.925Z,98660.69
2022-11-03T11:33:34.468Z,98648.50
2022-11-03T11:36:28.550Z,98652.44
2022-11-03T11:39:05.083Z,98656.81
2022-11-03T11:42:10.397Z,98657.25
2022-11-03T11:44:55.780Z,98663.53
2022-11-03T11:47:50.271Z,98660.47
2022-11-03T11:50:27.875Z,98658.31
2022-11-03T11:53:11.483Z,98659.56
2022-11-03T11:55:51.108Z,98651.81
2022-11-03T11:58:36.419Z,98645.84
2022-11-03T12:01:23.518Z,98651.06
2022-11-03T12:03:58.710Z,98644.97
2022-11-03T12:06:35.557Z,98638.09
2022-11-03T12:09:10.874Z,98638.66
2022-11-03T12:11:47.611Z,98642.78
2022-11-03T12:14:33.683Z,98648.31
2022-11-03T12:17:35.893Z,98647.06
2022-11-03T12:20:35.824Z,98639.81
2022-11-03T12:23:08.652Z,98646.28
2022-11-03T12:25:41.574Z,98640.44
2022-11-03T12:28:31.699Z,98637.78
2022-11-03T12:31:05.164Z,98639.75
2022-11-03T12:33:37.983Z,98636.38
2022-11-03T12:36:11.377Z,98636.59
2022-11-03T12:38:44.288Z,98637.00
2022-11-03T12:41:24.533Z,98633.69
2022-11-03T12:43:58.782Z,98632.47
2022-11-03T12:46:31.823Z,98624.91
2022-11-03T12:49:04.648Z,98625.19
2022-11-03T12:51:37.522Z,98628.22
2022-11-03T12:54:10.445Z,98628.47
2022-11-03T12:56:43.324Z,98629.56
2022-11-03T12:59:17.600Z,98622.34
2022-11-03T13:01:50.608Z,98621.81
2022-11-03T13:04:23.536Z,98611.69
2022-11-03T13:06:56.446Z,98611.09
2022-11-03T13:09:29.223Z,98611.16
2022-11-03T13:12:19.774Z,98610.72
2022-11-03T13:14:54.199Z,98603.88
2022-11-03T13:17:35.818Z,98590.53
2022-11-03T13:20:18.792Z,98591.66
2022-11-03T13:22:51.927Z,98595.69
2022-11-03T13:25:25.309Z,98594.50
2022-11-03T13:27:58.703Z,98591.38
2022-11-03T13:30:33.723Z,98580.50
2022-11-03T13:33:07.012Z,98585.81
2022-11-03T13:35:40.141Z,98584.06
2022-11-03T13:38:13.176Z,98579.78
2022-11-03T13:41:08.002Z,98570.97
2022-11-03T13:43:38.984Z,98574.72
2022-11-03T13:46:13.722Z,98565.34
2022-11-03T13:51:39.446Z,98559.56
2022-11-03T14:00:03.603Z,98563.75
2022-11-03T14:05:32.497Z,98562.00
2022-11-03T14:08:06.006Z,98564.56
2022-11-03T14:10:39.139Z,98561.81
2022-11-03T14:13:11.868Z,98561.34
2022-11-03T14:15:44.903Z,98565.09
2022-11-03T14:18:19.528Z,98569.97
2022-11-03T14:20:52.559Z,98565.56
2022-11-03T14:23:25.404Z,98560.56
2022-11-03T14:26:13.056Z,98564.59
2022-11-03T14:28:51.210Z,98557.84
2022-11-03T14:31:24.114Z,98554.19
2022-11-03T14:33:58.568Z,98550.88
2022-11-03T14:36:31.525Z,98551.81
2022-11-03T14:39:04.612Z,98553.59
2022-11-03T14:41:55.164Z,98549.81
2022-11-03T14:44:28.062Z,98556.69
2022-11-03T14:47:02.509Z,98556.81
2022-11-03T14:49:37.248Z,98549.91
2022-11-03T14:52:10.212Z,98550.63
2022-11-03T14:54:43.777Z,98544.31
2022-11-03T14:57:16.774Z,98538.50
2022-11-03T14:59:53.397Z,98546.75
2022-11-03T15:02:26.704Z,98544.59
2022-11-03T15:05:01.222Z,98544.31
2022-11-03T15:07:34.159Z,98539.06
2022-11-03T15:10:07.412Z,98533.56
2022-11-03T15:12:40.707Z,98533.44
2022-11-03T15:15:13.952Z,98527.53
2022-11-03T15:17:47.031Z,98533.41
2022-11-03T15:20:21.207Z,98532.19
2022-11-03T15:25:46.900Z,98531.16
2022-11-03T15:28:21.225Z,98532.56
2022-11-03T15:30:54.069Z,98534.41
2022-11-03T15:33:26.998Z,98532.66
2022-11-03T15:36:01.841Z,98539.63
2022-11-03T15:38:34.884Z,98540.44
2022-11-03T15:41:20.033Z,98531.44
2022-11-03T15:43:52.856Z,98530.28
2022-11-03T15:46:26.390Z,98537.06
2022-11-03T15:49:00.342Z,98527.72
2022-11-03T15:51:34.873Z,98531.03
2022-11-03T15:54:08.257Z,98525.34
2022-11-03T15:56:41.831Z,98520.59
2022-11-03T15:59:14.635Z,98521.25
2022-11-03T16:01:47.735Z,98517.09
2022-11-03T16:04:20.623Z,98525.34
2022-11-03T16:07:07.832Z,98527.44
2022-11-03T16:09:43.582Z,98523.56
2022-11-03T16:12:16.465Z,98531.41
2022-11-03T16:14:49.294Z,98516.59
2022-11-03T16:17:22.998Z,98525.59
2022-11-03T16:19:55.807Z,98516.72
2022-11-03T16:22:29.965Z,98509.84
2022-11-03T16:25:04.047Z,98510.75
2022-11-03T16:27:38.183Z,98510.75
2022-11-03T16:30:12.912Z,98512.97
2022-11-03T16:32:45.762Z,98514.31
2022-11-03T16:35:18.611Z,98521.53
2022-11-03T16:37:52.798Z,98521.44
2022-11-03T16:40:25.678Z,98528.28
2022-11-03T16:42:58.672Z,98521.47
2022-11-03T16:45:37.247Z,98526.22
2022-11-03T16:48:11.564Z,98521.78
2022-11-03T16:50:45.056Z,98520.81
2022-11-03T16:53:20.186Z,98530.13
2022-11-03T16:55:53.070Z,98532.09
2022-11-03T16:58:25.869Z,98533.38
2022-11-03T17:00:58.833Z,98534.38
2022-11-03T17:03:31.817Z,98541.00
2022-11-03T17:06:04.646Z,98536.41
2022-11-03T17:08:52.216Z,98534.59
2022-11-03T17:11:38.039Z,98539.75
2022-11-03T17:14:14.721Z,98543.25
2022-11-03T17:16:48.612Z,98539.94
2022-11-03T17:19:22.191Z,98537.84
2022-11-03T17:21:55.151Z,98541.13
2022-11-03T17:24:29.366Z,98552.59
2022-11-03T17:27:05.454Z,98543.84
2022-11-03T17:29:41.885Z,98547.03
2022-11-03T17:32:20.634Z,98553.09
2022-11-03T17:34:54.922Z,98552.47
2022-11-03T17:37:29.592Z,98555.78
2022-11-03T17:40:04.259Z,98564.78
2022-11-03T17:42:37.804Z,98566.06
2022-11-03T17:45:13.942Z,98561.69
2022-11-03T17:47:47.115Z,98566.94
2022-11-03T17:50:22.275Z,98568.25
2022-11-03T17:52:55.638Z,98572.84
2022-11-03T17:55:32.529Z,98575.41
2022-11-03T17:58:06.952Z,98577.53
2022-11-03T18:00:40.696Z,98584.56
2022-11-03T18:03:16.168Z,98578.56
2022-11-03T18:05:49.738Z,98578.78
2022-11-03T18:08:23.544Z,98584.81
2022-11-03T18:10:57.732Z,98582.31
2022-11-03T18:13:34.481Z,98581.91
2022-11-03T18:16:11.478Z,98580.03
2022-11-03T18:18:46.523Z,98579.59
2022-11-03T18:21:23.533Z,98591.47
2022-11-03T18:23:56.441Z,98598.78
2022-11-03T18:26:30.597Z,98597.53
2022-11-03T18:29:03.486Z,98602.09
2022-11-03T18:31:38.937Z,98600.84
2022-11-03T18:34:16.070Z,98602.09
2022-11-03T18:36:49.907Z,98597.94
2022-11-03T18:39:26.555Z,98600.84
2022-11-03T18:42:00.948Z,98604.41
2022-11-03T18:44:36.109Z,98614.81
2022-11-03T18:47:09.688Z,98620.22
2022-11-03T18:49:43.983Z,98612.50
2022-11-03T18:52:19.420Z,98614.38
2022-11-03T18:54:54.207Z,98616.25
2022-11-03T18:57:29.347Z,98623.13
2022-11-03T19:00:03.177Z,98629.19
2022-11-03T19:02:36.790Z,98625.19
2022-11-03T19:05:13.745Z,98628.56
2022-11-03T19:07:49.125Z,98628.97
2022-11-03T19:10:24.950Z,98631.06
2022-11-03T19:12:59.222Z,98625.00
2022-11-03T19:15:32.295Z,98631.69
2022-11-03T19:18:06.529Z,98637.69
2022-11-03T19:20:40.911Z,98640.00
2022-11-03T19:23:14.558Z,98631.25
2022-11-03T19:25:50.518Z,98635.41
2022-11-03T19:28:25.991Z,98635.22
2022-11-03T19:30:59.097Z,98635.84
2022-11-03T19:33:33.012Z,98634.38
2022-11-03T19:36:07.091Z,98636.25
2022-11-03T19:38:40.766Z,98635.59
2022-11-03T19:41:34.982Z,98640.59
2022-11-03T19:44:13.391Z,98651.03
2022-11-03T19:46:47.608Z,98648.72
2022-11-03T19:49:20.904Z,98650.19
2022-11-03T19:51:54.757Z,98651.44
2022-11-03T19:54:29.570Z,98656.03
2022-11-03T19:57:03.282Z,98653.72
2022-11-03T19:59:38.269Z,98659.13
2022-11-03T20:02:12.375Z,98663.28
2022-11-03T20:04:47.342Z,98658.28
2022-11-03T20:07:20.268Z,98664.94
2022-11-03T20:09:53.181Z,98665.56
2022-11-03T20:12:27.027Z,98667.44
2022-11-03T20:15:02.147Z,98669.94
2022-11-03T20:17:35.828Z,98674.97
2022-11-03T20:20:13.049Z,98675.38
2022-11-03T20:22:49.864Z,98676.16
2022-11-03T20:25:25.970Z,98679.50
2022-11-03T20:28:00.294Z,98686.16
2022-11-03T20:30:34.492Z,98677.63
2022-11-03T20:33:11.362Z,98685.13
2022-11-03T20:35:46.089Z,98681.63
2022-11-03T20:38:22.214Z,98682.88
2022-11-03T20:40:58.861Z,98683.31
2022-11-03T20:43:34.165Z,98685.19
2022-11-03T20:46:22.034Z,98693.94
2022-11-03T20:48:56.966Z,98695.63
2022-11-03T20:51:34.299Z,98706.03
2022-11-03T20:54:15.681Z,98708.31
2022-11-03T20:56:49.900Z,98712.28
2022-11-03T20:59:25.064Z,98711.84
2022-11-03T21:02:00.667Z,98723.94
2022-11-03T21:04:34.661Z,98730.78
2022-11-03T21:07:08.594Z,98728.09
2022-11-03T21:09:43.826Z,98737.25
2022-11-03T21:12:17.455Z,98733.31
2022-11-03T21:15:16.639Z,98742.47
2022-11-03T21:18:08.725Z,98751.66
2022-11-03T21:20:41.602Z,98759.34
2022-11-03T21:23:22.291Z,98759.16
2022-11-03T21:25:56.227Z,98766.22
2022-11-03T21:28:29.786Z,98772.69
2022-11-03T21:31:02.792Z,98778.09
2022-11-03T21:33:37.405Z,98777.47
2022-11-03T21:36:11.613Z,98787.47
2022-11-03T21:38:45.218Z,98795.56
2022-11-03T21:41:35.712Z,98796.22
2022-11-03T21:44:18.873Z,98797.88
2022-11-03T21:46:52.828Z,98808.91
2022-11-03T21:49:45.448Z,98809.72
2022-11-03T21:52:32.096Z,98815.97
2022-11-03T21:55:07.393Z,98818.25
2022-11-03T21:57:41.194Z,98826.72
2022-11-03T22:00:15.505Z,98826.50
2022-11-03T22:02:48.449Z,98832.06
2022-11-03T22:05:23.428Z,98831.84
2022-11-03T22:07:58.388Z,98836.84
2022-11-03T22:10:32.157Z,98839.94
2022-11-03T22:13:06.312Z,98851.34
2022-11-03T22:15:57.596Z,98850.66
2022-11-03T22:18:31.273Z,98853.78
2022-11-03T22:21:23.470Z,98856.88
2022-11-03T22:24:22.599Z,98861.78
2022-11-03T22:27:00.063Z,98878.41
2022-11-03T22:29:51.028Z,98871.09
2022-11-03T22:32:24.869Z,98873.94
2022-11-03T22:35:16.415Z,98881.41
2022-11-03T22:38:02.999Z,98886.09
2022-11-03T22:40:55.088Z,98891.94
2022-11-03T22:43:46.206Z,98894.38
2022-11-03T22:46:21.280Z,98900.94
2022-11-03T22:48:55.219Z,98900.91
2022-11-03T22:51:28.798Z,98899.72
2022-11-03T22:54:12.031Z,98906.53
2022-11-03T22:56:45.752Z,98913.75
2022-11-03T22:59:19.387Z,98922.44
2022-11-03T23:01:53.350Z,98933.41
2022-11-03T23:04:26.985Z,98932.50
2022-11-03T23:07:00.644Z,98936.44
2022-11-03T23:09:35.346Z,98936.03
2022-11-03T23:12:09.078Z,98950.75
2022-11-03T23:15:00.046Z,98953.88
2022-11-03T23:17:47.864Z,98959.25
2022-11-03T23:20:38.221Z,98951.91
2022-11-03T23:23:32.117Z,98962.16
2022-11-03T23:26:09.060Z,98972.53
2022-11-03T23:28:43.231Z,98963.66
2022-11-03T23:31:17.446Z,98976.06
2022-11-03T23:33:51.319Z,98973.13
2022-11-03T23:36:24.865Z,98973.09
2022-11-03T23:38:59.774Z,98978.00
2022-11-03T23:41:35.473Z,98983.13
2022-11-03T23:44:09.496Z,98993.91
2022-11-03T23:47:00.654Z,98994.47
2022-11-03T23:49:33.607Z,99000.16
2022-11-03T23:52:06.509Z,99001.66
2022-11-03T23:54:41.567Z,99006.66
2022-11-03T23:57:33.491Z,99004.16
